createdAt,value
2022-08-17T00:00:44.163Z,19.83
2022-08-17T00:03:42.700Z,19.82
2022-08-17T00:06:49.026Z,19.75
2022-08-17T00:09:51.314Z,19.68
2022-08-17T00:12:53.258Z,19.71
2022-08-17T00:15:59.409Z,19.79
2022-08-17T00:19:08.435Z,19.85
2022-08-17T00:22:34.207Z,19.86
2022-08-17T00:25:32.665Z,19.77
2022-08-17T00:28:34.296Z,19.69
2022-08-17T00:31:36.761Z,19.63
2022-08-17T00:34:39.854Z,19.57
2022-08-17T00:37:41.578Z,19.55
2022-08-17T00:40:45.443Z,19.51
2022-08-17T00:43:50.659Z,19.52
2022-08-17T00:46:52.713Z,19.48
2022-08-17T00:49:55.917Z,19.44
2022-08-17T00:52:58.893Z,19.39
2022-08-17T00:56:01.911Z,19.38
2022-08-17T00:59:05.336Z,19.34
2022-08-17T01:02:09.248Z,19.29
2022-08-17T01:05:20.002Z,19.25
2022-08-17T01:08:24.851Z,19.22
2022-08-17T01:11:26.880Z,19.23
2022-08-17T01:14:28.894Z,19.31
2022-08-17T01:17:30.587Z,19.41
2022-08-17T01:20:48.324Z,19.48
2022-08-17T01:24:01.845Z,19.54
2022-08-17T01:27:04.104Z,19.59
2022-08-17T01:30:57.027Z,19.54
2022-08-17T01:33:35.216Z,19.47
2022-08-17T01:36:38.531Z,19.36
2022-08-17T01:39:45.710Z,19.30
2022-08-17T01:42:49.932Z,19.26
2022-08-17T01:46:03.294Z,19.19
2022-08-17T01:49:06.605Z,19.16
2022-08-17T01:52:09.801Z,19.14
2022-08-17T01:55:15.668Z,19.10
2022-08-17T01:58:17.643Z,19.09
2022-08-17T02:01:21.194Z,19.10
2022-08-17T02:04:23.467Z,19.06
2022-08-17T02:07:26.965Z,19.04
2022-08-17T02:10:34.221Z,19.06
2022-08-17T02:13:36.021Z,19.10
2022-08-17T02:16:38.531Z,19.10
2022-08-17T02:19:40.526Z,19.07
2022-08-17T02:22:43.728Z,19.03
2022-08-17T02:25:50.270Z,19.01
2022-08-17T02:28:51.814Z,18.95
2022-08-17T02:31:56.826Z,18.91
2022-08-17T02:34:59.736Z,18.89
2022-08-17T02:38:01.830Z,18.83
2022-08-17T02:41:05.299Z,18.80
2022-08-17T02:44:07.525Z,18.79
2022-08-17T02:47:10.156Z,18.77
2022-08-17T02:50:14.210Z,18.77
2022-08-17T02:53:16.121Z,18.75
2022-08-17T02:56:19.044Z,18.72
2022-08-17T02:59:20.715Z,18.67
2022-08-17T03:02:22.515Z,18.67
2022-08-17T03:05:26.099Z,18.63
2022-08-17T03:08:27.949Z,18.64
2022-08-17T03:11:31.414Z,18.65
2022-08-17T03:14:34.002Z,18.63
2022-08-17T03:17:38.006Z,18.60
2022-08-17T03:20:41.938Z,18.52
2022-08-17T03:23:43.465Z,18.47
2022-08-17T03:26:46.665Z,18.51
2022-08-17T03:29:48.537Z,18.54
2022-08-17T03:32:51.726Z,18.53
2022-08-17T03:35:53.673Z,18.53
2022-08-17T03:38:55.429Z,18.50
2022-08-17T03:42:02.644Z,18.47
2022-08-17T03:45:05.556Z,18.42
2022-08-17T03:48:25.876Z,18.39
2022-08-17T03:51:53.422Z,18.34
2022-08-17T03:55:13.443Z,18.29
2022-08-17T03:58:16.669Z,18.25
2022-08-17T04:01:18.460Z,18.21
2022-08-17T04:04:20.413Z,18.22
2022-08-17T04:07:30.584Z,18.22
2022-08-17T04:10:32.977Z,18.19
2022-08-17T04:13:41.487Z,18.17
2022-08-17T04:16:43.162Z,18.15
2022-08-17T04:19:44.936Z,18.11
2022-08-17T04:22:56.636Z,18.20
2022-08-17T04:25:58.740Z,18.23
2022-08-17T04:29:02.005Z,18.19
2022-08-17T04:32:04.357Z,18.19
2022-08-17T04:35:06.228Z,18.20
2022-08-17T04:38:08.831Z,18.23
2022-08-17T04:41:29.935Z,18.28
2022-08-17T04:44:37.510Z,18.32
2022-08-17T04:47:39.575Z,18.35
2022-08-17T04:50:43.402Z,18.38
2022-08-17T04:53:54.062Z,18.37
2022-08-17T04:56:56.454Z,18.57
2022-08-17T04:59:59.408Z,18.64
2022-08-17T05:03:01.400Z,18.66
2022-08-17T05:06:03.376Z,18.67
2022-08-17T05:09:05.142Z,18.66
2022-08-17T05:12:07.146Z,18.67
2022-08-17T05:15:12.909Z,18.70
2022-08-17T05:18:15.410Z,18.70
2022-08-17T05:21:17.317Z,18.70
2022-08-17T05:24:40.765Z,18.72
2022-08-17T05:27:41.267Z,18.79
2022-08-17T05:30:46.329Z,18.81
2022-08-17T05:33:55.401Z,18.87
2022-08-17T05:36:57.125Z,18.93
2022-08-17T05:39:58.900Z,18.97
2022-08-17T05:43:04.703Z,19.00
2022-08-17T05:46:08.319Z,19.03
2022-08-17T05:49:18.784Z,19.06
2022-08-17T05:52:26.932Z,19.09
2022-08-17T05:55:33.261Z,19.09
2022-08-17T05:58:42.444Z,19.13
2022-08-17T06:01:49.711Z,19.14
2022-08-17T06:05:02.945Z,19.14
2022-08-17T06:08:12.413Z,19.16
2022-08-17T06:11:20.458Z,19.19
2022-08-17T06:14:44.457Z,19.22
2022-08-17T06:17:47.599Z,19.24
2022-08-17T06:20:51.311Z,19.28
2022-08-17T06:23:56.990Z,19.32
2022-08-17T06:27:06.617Z,19.34
2022-08-17T06:30:11.417Z,19.38
2022-08-17T06:33:18.983Z,19.46
2022-08-17T06:36:40.283Z,19.55
2022-08-17T06:39:49.907Z,19.69
2022-08-17T06:43:05.396Z,19.80
2022-08-17T06:46:11.787Z,19.91
2022-08-17T06:49:18.161Z,19.99
2022-08-17T06:52:45.650Z,20.11
2022-08-17T06:56:05.289Z,20.23
2022-08-17T06:59:10.210Z,20.32
2022-08-17T07:02:15.244Z,20.41
2022-08-17T07:05:20.859Z,20.43
2022-08-17T07:08:35.357Z,20.52
2022-08-17T07:11:40.459Z,20.54
2022-08-17T07:14:45.820Z,20.55
2022-08-17T07:17:48.488Z,20.53
2022-08-17T07:20:54.170Z,20.55
2022-08-17T07:24:02.647Z,20.57
2022-08-17T07:27:06.499Z,20.60
2022-08-17T07:30:10.957Z,20.67
2022-08-17T07:33:14.020Z,20.84
2022-08-17T07:36:29.659Z,20.97
2022-08-17T07:39:35.351Z,21.08
2022-08-17T07:43:06.097Z,21.20
2022-08-17T07:46:34.718Z,21.29
2022-08-17T07:49:37.989Z,21.38
2022-08-17T07:52:51.742Z,21.47
2022-08-17T07:55:54.213Z,21.54
2022-08-17T07:59:05.554Z,21.61
2022-08-17T08:02:24.178Z,21.69
2022-08-17T08:05:50.657Z,21.72
2022-08-17T08:08:55.081Z,21.78
2022-08-17T08:11:56.743Z,21.97
2022-08-17T08:14:59.141Z,22.09
2022-08-17T08:18:03.093Z,22.16
2022-08-17T08:21:12.950Z,22.36
2022-08-17T08:24:34.815Z,22.39
2022-08-17T08:27:43.837Z,22.45
2022-08-17T08:30:48.576Z,22.57
2022-08-17T08:33:56.240Z,22.60
2022-08-17T08:37:17.560Z,22.66
2022-08-17T08:40:33.378Z,22.75
2022-08-17T08:43:38.913Z,22.88
2022-08-17T08:46:46.233Z,22.98
2022-08-17T08:50:05.364Z,23.05
2022-08-17T08:53:14.440Z,23.11
2022-08-17T08:56:22.681Z,23.14
2022-08-17T08:59:29.460Z,23.21
2022-08-17T09:02:41.037Z,23.41
2022-08-17T09:05:53.593Z,23.52
2022-08-17T09:09:02.025Z,23.58
2022-08-17T09:12:10.100Z,23.63
2022-08-17T09:15:18.180Z,23.66
2022-08-17T09:19:00.203Z,23.83
2022-08-17T09:21:48.152Z,23.97
2022-08-17T09:24:57.253Z,24.09
2022-08-17T09:28:03.697Z,24.15
2022-08-17T09:31:08.374Z,24.14
2022-08-17T09:34:12.192Z,24.18
2022-08-17T09:37:19.237Z,24.18
2022-08-17T09:40:24.519Z,24.17
2022-08-17T09:43:31.820Z,24.13
2022-08-17T09:46:36.066Z,24.23
2022-08-17T09:49:46.935Z,24.26
2022-08-17T09:52:49.587Z,24.29
2022-08-17T09:56:00.113Z,24.33
2022-08-17T09:59:17.365Z,24.58
2022-08-17T10:02:40.626Z,24.82
2022-08-17T10:05:46.930Z,24.84
2022-08-17T10:08:57.675Z,24.82
2022-08-17T10:12:22.889Z,24.89
2022-08-17T10:15:38.180Z,24.80
2022-08-17T10:18:44.393Z,24.81
2022-08-17T10:22:32.730Z,24.93
2022-08-17T10:25:55.229Z,24.98
2022-08-17T10:29:00.571Z,25.00
2022-08-17T10:32:10.906Z,24.97
2022-08-17T10:35:22.521Z,24.96
2022-08-17T10:38:32.578Z,24.89
2022-08-17T10:41:40.862Z,24.90
2022-08-17T10:44:47.190Z,24.90
2022-08-17T10:48:04.670Z,24.89
2022-08-17T10:51:12.555Z,24.88
2022-08-17T10:54:29.275Z,24.92
2022-08-17T10:57:42.655Z,24.88
2022-08-17T11:01:02.558Z,24.97
2022-08-17T11:04:07.918Z,25.02
2022-08-17T11:07:14.795Z,25.09
2022-08-17T11:10:34.340Z,25.19
2022-08-17T11:13:44.905Z,25.26
2022-08-17T11:16:53.403Z,25.24
2022-08-17T11:20:05.205Z,25.28
2022-08-17T11:23:17.182Z,25.27
2022-08-17T11:26:26.738Z,25.28
2022-08-17T11:29:31.695Z,25.27
2022-08-17T11:32:47.755Z,25.28
2022-08-17T11:35:55.327Z,25.26
2022-08-17T11:39:02.162Z,25.28
2022-08-17T11:42:06.029Z,25.23
2022-08-17T11:45:32.540Z,25.23
2022-08-17T11:48:56.733Z,25.26
2022-08-17T11:52:13.134Z,25.40
2022-08-17T11:55:40.546Z,25.61
2022-08-17T11:58:45.454Z,25.76
2022-08-17T12:01:56.760Z,25.83
2022-08-17T12:05:17.338Z,25.84
2022-08-17T12:08:20.305Z,25.78
2022-08-17T12:12:01.708Z,25.77
2022-08-17T12:18:20.310Z,25.79
2022-08-17T12:21:38.177Z,25.83
2022-08-17T12:24:47.484Z,25.78
2022-08-17T12:28:05.036Z,25.64
2022-08-17T12:31:15.050Z,25.63
2022-08-17T12:34:19.892Z,25.56
2022-08-17T12:37:24.954Z,25.44
2022-08-17T12:40:27.877Z,25.37
2022-08-17T12:43:32.902Z,25.36
2022-08-17T12:46:44.810Z,25.43
2022-08-17T12:49:48.646Z,25.60
2022-08-17T12:52:51.033Z,25.76
2022-08-17T12:55:58.981Z,25.92
2022-08-17T12:59:02.425Z,25.96
2022-08-17T13:02:04.517Z,25.92
2022-08-17T13:05:09.336Z,25.86
2022-08-17T13:08:15.253Z,25.82
2022-08-17T13:11:19.354Z,25.73
2022-08-17T13:14:21.875Z,25.67
2022-08-17T13:17:32.047Z,25.62
2022-08-17T13:20:35.597Z,25.59
2022-08-17T13:23:37.906Z,25.59
2022-08-17T13:26:42.049Z,25.59
2022-08-17T13:29:53.814Z,25.54
2022-08-17T13:32:56.253Z,25.52
2022-08-17T13:36:06.836Z,25.48
2022-08-17T13:39:13.623Z,25.50
2022-08-17T13:42:34.492Z,25.57
2022-08-17T13:46:06.988Z,25.65
2022-08-17T13:49:11.728Z,25.66
2022-08-17T13:52:30.763Z,25.65
2022-08-17T13:55:33.108Z,25.65
2022-08-17T13:58:37.431Z,25.64
2022-08-17T14:01:40.813Z,25.62
2022-08-17T14:04:43.579Z,25.58
2022-08-17T14:07:46.620Z,25.56
2022-08-17T14:10:50.511Z,25.52
2022-08-17T14:13:52.695Z,25.49
2022-08-17T14:16:54.369Z,25.47
2022-08-17T14:19:56.160Z,25.40
2022-08-17T14:22:59.284Z,25.25
2022-08-17T14:26:01.272Z,25.08
2022-08-17T14:29:03.044Z,24.89
2022-08-17T14:32:06.979Z,24.73
2022-08-17T14:35:12.109Z,24.65
2022-08-17T14:38:15.218Z,24.55
2022-08-17T14:41:22.037Z,24.45
2022-08-17T14:44:23.978Z,24.40
2022-08-17T14:47:26.690Z,24.33
2022-08-17T14:50:28.561Z,24.27
2022-08-17T14:53:31.982Z,24.23
2022-08-17T14:56:37.924Z,24.20
2022-08-17T14:59:40.205Z,24.18
2022-08-17T15:02:46.383Z,24.34
2022-08-17T15:05:54.808Z,24.57
2022-08-17T15:08:58.185Z,24.80
2022-08-17T15:12:01.180Z,24.96
2022-08-17T15:15:04.760Z,25.11
2022-08-17T15:18:08.860Z,25.21
2022-08-17T15:21:10.973Z,25.10
2022-08-17T15:24:16.602Z,24.93
2022-08-17T15:27:18.367Z,24.74
2022-08-17T15:30:35.253Z,24.58
2022-08-17T15:33:38.350Z,24.52
2022-08-17T15:36:49.273Z,24.56
2022-08-17T15:39:53.052Z,24.58
2022-08-17T15:42:54.813Z,24.77
2022-08-17T15:46:00.212Z,24.77
2022-08-17T15:49:05.778Z,24.77
2022-08-17T15:52:14.746Z,24.78
2022-08-17T15:55:24.145Z,24.79
2022-08-17T15:58:29.889Z,24.85
2022-08-17T16:03:01.961Z,25.02
2022-08-17T16:04:57.371Z,25.02
2022-08-17T16:07:59.973Z,24.90
2022-08-17T16:11:03.942Z,24.83
2022-08-17T16:14:05.773Z,24.72
2022-08-17T16:17:38.734Z,24.62
2022-08-17T16:20:31.778Z,24.58
2022-08-17T16:23:33.919Z,24.58
2022-08-17T16:26:37.081Z,24.61
2022-08-17T16:29:39.646Z,24.51
2022-08-17T16:32:41.555Z,24.50
2022-08-17T16:35:43.462Z,24.60
2022-08-17T16:38:45.290Z,24.65
2022-08-17T16:41:48.377Z,24.62
2022-08-17T16:44:53.271Z,24.53
2022-08-17T16:47:55.412Z,24.42
2022-08-17T16:51:02.952Z,24.31
2022-08-17T16:54:07.352Z,24.21
2022-08-17T16:57:11.241Z,24.16
2022-08-17T17:00:15.029Z,24.12
2022-08-17T17:03:19.480Z,24.08
2022-08-17T17:06:28.110Z,24.05
2022-08-17T17:09:34.883Z,24.06
2022-08-17T17:13:02.971Z,24.15
2022-08-17T17:16:16.206Z,24.24
2022-08-17T17:19:27.721Z,24.29
2022-08-17T17:22:41.214Z,24.30
2022-08-17T17:25:50.732Z,24.33
2022-08-17T17:29:03.187Z,24.32
2022-08-17T17:32:14.091Z,24.33
2022-08-17T17:35:23.039Z,24.27
2022-08-17T17:38:28.987Z,24.23
2022-08-17T17:41:34.194Z,24.20
2022-08-17T17:44:39.396Z,24.13
2022-08-17T17:47:43.356Z,24.10
2022-08-17T17:50:50.468Z,24.05
2022-08-17T17:53:57.624Z,24.00
2022-08-17T17:57:03.483Z,23.89
2022-08-17T18:00:12.122Z,23.85
2022-08-17T18:03:24.118Z,23.79
2022-08-17T18:06:29.681Z,23.69
2022-08-17T18:09:42.217Z,23.58
2022-08-17T18:12:58.017Z,23.48
2022-08-17T18:16:01.866Z,23.40
2022-08-17T18:19:03.536Z,23.32
2022-08-17T18:22:14.142Z,23.23
2022-08-17T18:25:31.005Z,23.19
2022-08-17T18:28:35.736Z,23.14
2022-08-17T18:31:38.872Z,23.08
2022-08-17T18:34:49.933Z,23.02
2022-08-17T18:37:53.057Z,22.94
2022-08-17T18:41:03.005Z,22.88
2022-08-17T18:44:05.660Z,22.78
2022-08-17T18:47:15.621Z,22.70
2022-08-17T18:50:22.301Z,22.61
2022-08-17T18:53:33.241Z,22.53
2022-08-17T18:56:36.210Z,22.52
2022-08-17T18:59:42.432Z,22.51
2022-08-17T19:02:53.448Z,22.45
2022-08-17T19:06:18.099Z,22.47
2022-08-17T19:09:29.682Z,22.39
2022-08-17T19:12:35.295Z,22.34
2022-08-17T19:15:39.925Z,22.28
2022-08-17T19:18:45.611Z,22.22
2022-08-17T19:21:52.510Z,22.18
2022-08-17T19:25:02.645Z,22.10
2022-08-17T19:28:15.367Z,22.01
2022-08-17T19:31:26.750Z,22.00
2022-08-17T19:34:33.995Z,21.93
2022-08-17T19:37:38.762Z,21.83
2022-08-17T19:40:53.209Z,21.84
2022-08-17T19:44:00.916Z,21.82
2022-08-17T19:47:10.488Z,21.85
2022-08-17T19:50:16.575Z,21.86
2022-08-17T19:53:33.203Z,21.85
2022-08-17T19:56:51.783Z,21.81
2022-08-17T19:59:57.165Z,21.72
2022-08-17T20:03:05.891Z,21.66
2022-08-17T20:06:17.586Z,21.59
2022-08-17T20:09:21.327Z,21.56
2022-08-17T20:12:24.664Z,21.54
2022-08-17T20:15:29.730Z,21.47
2022-08-17T20:18:37.882Z,21.46
2022-08-17T20:21:52.641Z,21.48
2022-08-17T20:24:58.217Z,21.50
2022-08-17T20:28:06.409Z,21.50
2022-08-17T20:31:27.674Z,21.56
2022-08-17T20:34:37.317Z,21.62
2022-08-17T20:37:44.211Z,21.61
2022-08-17T20:41:01.259Z,21.59
2022-08-17T20:44:04.900Z,21.58
2022-08-17T20:47:08.512Z,21.55
2022-08-17T20:50:13.056Z,21.55
2022-08-17T20:53:36.636Z,21.52
2022-08-17T20:56:49.510Z,21.48
2022-08-17T20:59:59.891Z,21.45
2022-08-17T21:03:17.454Z,21.43
2022-08-17T21:06:20.374Z,21.40
2022-08-17T21:09:29.627Z,21.38
2022-08-17T21:12:48.132Z,21.36
2022-08-17T21:15:52.438Z,21.34
2022-08-17T21:19:00.789Z,21.32
2022-08-17T21:22:13.022Z,21.30
2022-08-17T21:25:27.059Z,21.28
2022-08-17T21:28:34.218Z,21.24
2022-08-17T21:31:38.434Z,21.24
2022-08-17T21:34:42.553Z,21.26
2022-08-17T21:37:45.083Z,21.19
2022-08-17T21:40:53.039Z,21.16
2022-08-17T21:43:58.199Z,21.17
2022-08-17T21:47:13.513Z,21.17
2022-08-17T21:50:20.719Z,21.12
2022-08-17T21:53:25.392Z,21.11
2022-08-17T21:56:31.802Z,21.12
2022-08-17T21:59:35.683Z,21.10
2022-08-17T22:02:41.834Z,21.06
2022-08-17T22:05:43.583Z,21.06
2022-08-17T22:08:56.787Z,21.02
2022-08-17T22:12:06.249Z,20.93
2022-08-17T22:15:09.913Z,20.88
2022-08-17T22:18:21.820Z,20.83
2022-08-17T22:21:25.095Z,20.85
2022-08-17T22:24:27.113Z,20.80
2022-08-17T22:27:47.008Z,20.72
2022-08-17T22:31:00.185Z,20.65
2022-08-17T22:34:09.469Z,20.57
2022-08-17T22:37:28.465Z,20.59
2022-08-17T22:40:31.183Z,20.58
2022-08-17T22:43:37.632Z,20.60
2022-08-17T22:46:40.640Z,20.59
2022-08-17T22:49:53.278Z,20.59
2022-08-17T22:53:24.031Z,20.55
2022-08-17T22:56:44.253Z,20.47
2022-08-17T22:59:51.891Z,20.40
2022-08-17T23:03:05.821Z,20.38
2022-08-17T23:06:09.068Z,20.32
2022-08-17T23:09:10.728Z,20.31
2022-08-17T23:12:14.980Z,20.26
2022-08-17T23:15:19.242Z,20.17
2022-08-17T23:18:20.941Z,20.13
2022-08-17T23:21:25.693Z,20.17
2022-08-17T23:24:30.403Z,20.17
2022-08-17T23:27:32.321Z,20.17
2022-08-17T23:30:37.018Z,20.15
2022-08-17T23:33:39.861Z,20.14
2022-08-17T23:36:41.491Z,20.11
2022-08-17T23:39:45.142Z,20.12
2022-08-17T23:42:47.371Z,20.11
2022-08-17T23:45:50.581Z,20.08
2022-08-17T23:48:54.344Z,19.99
2022-08-17T23:51:56.042Z,19.92
2022-08-17T23:54:57.677Z,19.84
2022-08-17T23:57:59.619Z,19.79
